createdAt,value
2022-08-01T00:00:09.910Z,100795.19
2022-08-01T00:02:39.107Z,100792.56
2022-08-01T00:05:08.062Z,100793.44
2022-08-01T00:07:35.742Z,100795.25
2022-08-01T00:10:04.807Z,100798.84
2022-08-01T00:12:31.710Z,100797.09
2022-08-01T00:14:58.530Z,100791.69
2022-08-01T00:17:25.373Z,100795.34
2022-08-01T00:19:52.172Z,100797.19
2022-08-01T00:22:18.964Z,100800.84
2022-08-01T00:24:45.769Z,100788.38
2022-08-01T00:27:12.587Z,100791.19
2022-08-01T00:30:13.212Z,100792.16
2022-08-01T00:32:26.482Z,100793.19
2022-08-01T00:34:53.319Z,100792.31
2022-08-01T00:37:20.089Z,100790.56
2022-08-01T00:39:46.913Z,100794.25
2022-08-01T00:42:14.086Z,100790.56
2022-08-01T00:44:41.344Z,100788.84
2022-08-01T00:47:08.889Z,100796.94
2022-08-01T00:49:36.243Z,100792.47
2022-08-01T00:52:06.647Z,100785.31
2022-08-01T00:54:33.821Z,100777.22
2022-08-01T00:57:00.963Z,100777.22
2022-08-01T00:59:28.744Z,100773.56
2022-08-01T01:01:56.225Z,100779.91
2022-08-01T01:04:23.938Z,100776.28
2022-08-01T01:07:02.473Z,100770.88
2022-08-01T01:09:52.989Z,100774.53
2022-08-01T01:12:50.488Z,100769.28
2022-08-01T01:15:46.017Z,100776.56
2022-08-01T01:18:24.598Z,100770.22
2022-08-01T01:21:10.650Z,100770.28
2022-08-01T01:24:08.460Z,100770.28
2022-08-01T01:27:22.486Z,100763.16
2022-08-01T01:29:59.398Z,100764.00
2022-08-01T01:32:39.898Z,100767.53
2022-08-01T01:35:24.562Z,100776.50
2022-08-01T01:37:57.776Z,100775.16
2022-08-01T01:40:25.993Z,100768.72
2022-08-01T01:42:53.924Z,100771.34
2022-08-01T01:45:22.465Z,100773.09
2022-08-01T01:47:49.796Z,100775.81
2022-08-01T01:50:17.162Z,100774.03
2022-08-01T01:52:46.314Z,100776.91
2022-08-01T01:55:14.451Z,100768.88
2022-08-01T01:57:43.606Z,100769.88
2022-08-01T02:00:13.804Z,100778.97
2022-08-01T02:02:43.185Z,100777.28
2022-08-01T02:05:12.578Z,100773.69
2022-08-01T02:07:40.704Z,100768.41
2022-08-01T02:10:08.521Z,100764.00
2022-08-01T02:12:39.145Z,100771.22
2022-08-01T02:15:07.687Z,100783.88
2022-08-01T02:17:42.330Z,100775.91
2022-08-01T02:20:09.802Z,100780.59
2022-08-01T02:22:47.647Z,100774.38
2022-08-01T02:25:29.518Z,100781.78
2022-08-01T02:28:06.125Z,100786.53
2022-08-01T02:30:43.949Z,100783.25
2022-08-01T02:33:18.946Z,100784.41
2022-08-01T02:36:30.491Z,100791.84
2022-08-01T02:38:43.387Z,100792.16
2022-08-01T02:41:14.544Z,100792.28
2022-08-01T02:43:53.178Z,100796.09
2022-08-01T02:46:53.298Z,100793.06
2022-08-01T02:49:22.410Z,100805.88
2022-08-01T02:51:50.598Z,100804.28
2022-08-01T02:54:19.611Z,100806.16
2022-08-01T02:56:49.390Z,100812.59
2022-08-01T02:59:22.186Z,100815.34
2022-08-01T03:01:51.181Z,100809.06
2022-08-01T03:04:18.949Z,100812.66
2022-08-01T03:06:46.978Z,100814.53
2022-08-01T03:09:16.601Z,100815.50
2022-08-01T03:11:45.411Z,100817.38
2022-08-01T03:14:14.086Z,100811.97
2022-08-01T03:16:45.694Z,100827.16
2022-08-01T03:19:14.705Z,100823.59
2022-08-01T03:21:44.526Z,100839.78
2022-08-01T03:24:13.010Z,100836.09
2022-08-01T03:26:42.109Z,100828.00
2022-08-01T03:29:15.673Z,100828.00
2022-08-01T03:31:45.895Z,100833.41
2022-08-01T03:34:13.381Z,100836.09
2022-08-01T03:36:50.992Z,100828.00
2022-08-01T03:39:20.126Z,100838.94
2022-08-01T03:42:03.297Z,100846.91
2022-08-01T03:44:31.990Z,100840.72
2022-08-01T03:47:06.963Z,100852.22
2022-08-01T03:49:42.400Z,100850.34
2022-08-01T03:52:10.417Z,100848.44
2022-08-01T03:54:42.275Z,100844.06
2022-08-01T03:57:35.108Z,100850.41
2022-08-01T04:00:00.270Z,100848.66
2022-08-01T04:02:29.485Z,100849.59
2022-08-01T04:04:56.557Z,100853.31
2022-08-01T04:07:32.749Z,100858.78
2022-08-01T04:09:59.893Z,100857.09
2022-08-01T04:12:26.703Z,100852.66
2022-08-01T04:14:53.707Z,100860.69
2022-08-01T04:17:20.521Z,100858.03
2022-08-01T04:19:47.338Z,100861.69
2022-08-01T04:22:15.960Z,100867.06
2022-08-01T04:24:45.944Z,100867.94
2022-08-01T04:27:18.995Z,100872.47
2022-08-01T04:30:08.045Z,100882.41
2022-08-01T04:32:39.832Z,100871.63
2022-08-01T04:35:23.494Z,100877.88
2022-08-01T04:37:58.982Z,100880.66
2022-08-01T04:40:27.202Z,100885.16
2022-08-01T04:42:54.339Z,100892.38
2022-08-01T04:45:22.666Z,100893.19
2022-08-01T04:47:50.699Z,100889.53
2022-08-01T04:50:18.118Z,100882.41
2022-08-01T04:52:45.018Z,100901.19
2022-08-01T04:55:11.886Z,100901.19
2022-08-01T04:57:42.233Z,100902.09
2022-08-01T05:00:09.879Z,100903.91
2022-08-01T05:02:36.881Z,100907.47
2022-08-01T05:05:06.517Z,100900.31
2022-08-01T05:07:34.236Z,100907.47
2022-08-01T05:10:12.385Z,100908.41
2022-08-01T05:12:39.311Z,100912.00
2022-08-01T05:15:11.810Z,100914.63
2022-08-01T05:17:46.113Z,100914.63
2022-08-01T05:20:13.010Z,100913.81
2022-08-01T05:22:40.108Z,100913.91
2022-08-01T05:25:07.691Z,100920.19
2022-08-01T05:27:40.188Z,100928.28
2022-08-01T05:30:09.537Z,100930.00
2022-08-01T05:32:37.122Z,100927.28
2022-08-01T05:35:04.403Z,100928.31
2022-08-01T05:37:31.241Z,100931.97
2022-08-01T05:39:58.081Z,100928.44
2022-08-01T05:42:24.865Z,100932.28
2022-08-01T05:44:51.794Z,100931.59
2022-08-01T05:47:19.304Z,100937.00
2022-08-01T05:49:46.969Z,100929.84
2022-08-01T05:52:14.968Z,100935.38
2022-08-01T05:54:41.902Z,100934.63
2022-08-01T05:57:08.793Z,100932.00
2022-08-01T05:59:35.590Z,100935.63
2022-08-01T06:02:02.442Z,100931.84
2022-08-01T06:04:29.437Z,100941.69
2022-08-01T06:06:56.277Z,100947.97
2022-08-01T06:09:23.079Z,100947.03
2022-08-01T06:11:49.865Z,100947.91
2022-08-01T06:14:16.706Z,100947.09
2022-08-01T06:16:43.507Z,100953.41
2022-08-01T06:19:10.313Z,100964.19
2022-08-01T06:21:37.100Z,100961.41
2022-08-01T06:24:04.688Z,100970.44
2022-08-01T06:26:32.191Z,100965.09
2022-08-01T06:28:59.106Z,100966.09
2022-08-01T06:31:29.339Z,100975.00
2022-08-01T06:33:58.613Z,100979.44
2022-08-01T06:36:26.492Z,100982.09
2022-08-01T06:38:53.309Z,100982.81
2022-08-01T06:41:20.095Z,100981.81
2022-08-01T06:43:46.901Z,100982.81
2022-08-01T06:46:13.721Z,100986.47
2022-08-01T06:48:40.754Z,100982.97
2022-08-01T06:51:10.267Z,100994.56
2022-08-01T06:53:38.390Z,100992.53
2022-08-01T06:56:06.671Z,100993.22
2022-08-01T06:58:35.273Z,100995.69
2022-08-01T07:01:03.194Z,100988.16
2022-08-01T07:03:53.134Z,100989.81
2022-08-01T07:06:18.890Z,100989.47
2022-08-01T07:08:45.677Z,100991.97
2022-08-01T07:11:12.465Z,100992.72
2022-08-01T07:13:43.788Z,100994.47
2022-08-01T07:16:11.248Z,100989.81
2022-08-01T07:18:38.040Z,100976.13
2022-08-01T07:21:05.089Z,100989.22
2022-08-01T07:23:36.656Z,100987.25
2022-08-01T07:26:04.933Z,100985.53
2022-08-01T07:28:31.889Z,100984.09
2022-08-01T07:30:58.817Z,100998.84
2022-08-01T07:33:25.605Z,100996.09
2022-08-01T07:35:52.447Z,100994.66
2022-08-01T07:38:19.261Z,101003.28
2022-08-01T07:40:46.121Z,100997.63
2022-08-01T07:43:13.126Z,101002.00
2022-08-01T07:45:45.416Z,101003.91
2022-08-01T07:48:13.488Z,101009.31
2022-08-01T07:50:40.286Z,101005.00
2022-08-01T07:53:07.182Z,101010.03
2022-08-01T07:55:34.020Z,101015.06
2022-08-01T07:58:00.817Z,101026.31
2022-08-01T08:00:28.486Z,101023.97
2022-08-01T08:02:55.802Z,101038.06
2022-08-01T08:05:57.906Z,101036.97
2022-08-01T08:08:11.188Z,101038.00
2022-08-01T08:10:38.022Z,101038.78
2022-08-01T08:13:05.464Z,101042.09
2022-08-01T08:15:32.448Z,101039.72
2022-08-01T08:18:00.509Z,101037.31
2022-08-01T08:20:28.729Z,101046.41
2022-08-01T08:22:57.763Z,101041.97
2022-08-01T08:25:26.666Z,101042.72
2022-08-01T08:27:54.083Z,101040.50
2022-08-01T08:30:21.889Z,101048.03
2022-08-01T08:32:48.925Z,101038.41
2022-08-01T08:35:20.123Z,101050.56
2022-08-01T08:37:49.976Z,101050.84
2022-08-01T08:40:17.462Z,101046.78
2022-08-01T08:42:45.202Z,101055.41
2022-08-01T08:45:12.385Z,101045.91
2022-08-01T08:47:40.523Z,101055.28
2022-08-01T08:50:07.902Z,101051.56
2022-08-01T08:52:39.446Z,101060.84
2022-08-01T08:55:07.246Z,101063.88
2022-08-01T08:57:34.389Z,101068.69
2022-08-01T09:00:01.454Z,101072.28
2022-08-01T09:02:28.242Z,101080.41
2022-08-01T09:04:55.298Z,101082.28
2022-08-01T09:07:23.747Z,101082.44
2022-08-01T09:09:51.461Z,101089.88
2022-08-01T09:12:20.376Z,101087.59
2022-08-01T09:14:50.583Z,101100.59
2022-08-01T09:17:17.615Z,101101.03
2022-08-01T09:19:57.767Z,101090.91
2022-08-01T09:22:26.201Z,101094.19
2022-08-01T09:25:10.677Z,101101.41
2022-08-01T09:27:44.229Z,101103.13
2022-08-01T09:30:23.690Z,101093.56
2022-08-01T09:33:06.279Z,101098.25
2022-08-01T09:35:43.206Z,101110.31
2022-08-01T09:38:23.109Z,101108.75
2022-08-01T09:40:52.843Z,101124.38
2022-08-01T09:43:22.223Z,101125.19
2022-08-01T09:45:53.013Z,101124.22
2022-08-01T09:48:22.780Z,101122.34
2022-08-01T09:50:56.265Z,101132.28
2022-08-01T09:53:43.505Z,101135.63
2022-08-01T09:56:18.545Z,101138.13
2022-08-01T09:59:01.925Z,101148.56
2022-08-01T10:01:43.220Z,101145.84
2022-08-01T10:04:20.074Z,101145.72
2022-08-01T10:06:55.476Z,101157.97
2022-08-01T10:09:36.027Z,101150.59
2022-08-01T10:12:07.564Z,101160.84
2022-08-01T10:14:37.330Z,101159.25
2022-08-01T10:17:09.239Z,101152.19
2022-08-01T10:19:46.287Z,101148.78
2022-08-01T10:22:18.782Z,101155.06
2022-08-01T10:24:48.832Z,101150.59
2022-08-01T10:27:24.233Z,101153.19
2022-08-01T10:30:05.176Z,101154.78
2022-08-01T10:32:39.456Z,101148.22
2022-08-01T10:35:14.840Z,101141.59
2022-08-01T10:37:51.974Z,101149.47
2022-08-01T10:40:30.382Z,101142.19
2022-08-01T10:42:57.996Z,101147.38
2022-08-01T10:45:27.477Z,101147.88
2022-08-01T10:48:32.653Z,101152.19
2022-08-01T10:51:17.905Z,101151.53
2022-08-01T10:54:11.405Z,101156.06
2022-08-01T10:56:48.763Z,101153.31
2022-08-01T10:59:49.272Z,101154.97
2022-08-01T11:02:11.581Z,101155.94
2022-08-01T11:04:56.011Z,101147.59
2022-08-01T11:07:37.596Z,101141.84
2022-08-01T11:10:45.423Z,101139.06
2022-08-01T11:13:13.482Z,101143.44
2022-08-01T11:15:49.924Z,101137.56
2022-08-01T11:18:32.649Z,101137.72
2022-08-01T11:21:57.290Z,101144.59
2022-08-01T11:23:55.074Z,101152.88
2022-08-01T11:26:29.342Z,101151.09
2022-08-01T11:29:21.731Z,101141.56
2022-08-01T11:31:50.071Z,101145.97
2022-08-01T11:34:16.864Z,101148.41
2022-08-01T11:36:59.901Z,101149.69
2022-08-01T11:39:27.316Z,101157.50
2022-08-01T11:41:55.423Z,101160.22
2022-08-01T11:44:26.747Z,101157.44
2022-08-01T11:47:09.641Z,101166.28
2022-08-01T11:49:55.738Z,101160.28
2022-08-01T11:52:33.315Z,101166.06
2022-08-01T11:55:10.706Z,101159.63
2022-08-01T11:57:39.480Z,101155.97
2022-08-01T12:00:16.731Z,101153.84
2022-08-01T12:03:00.613Z,101158.06
2022-08-01T12:05:31.472Z,101157.13
2022-08-01T12:07:58.957Z,101149.69
2022-08-01T12:10:36.873Z,101163.59
2022-08-01T12:13:14.110Z,101155.00
2022-08-01T12:15:40.926Z,101158.34
2022-08-01T12:18:08.918Z,101162.38
2022-08-01T12:20:56.200Z,101168.16
2022-08-01T12:23:23.874Z,101163.25
2022-08-01T12:25:54.499Z,101169.22
2022-08-01T12:28:22.046Z,101159.94
2022-08-01T12:30:50.229Z,101166.13
2022-08-01T12:33:22.044Z,101154.69
2022-08-01T12:35:49.204Z,101163.78
2022-08-01T12:38:24.123Z,101162.03
2022-08-01T12:40:53.126Z,101159.13
2022-08-01T12:43:28.001Z,101155.19
2022-08-01T12:45:58.096Z,101159.06
2022-08-01T12:48:26.435Z,101160.41
2022-08-01T12:50:54.428Z,101153.72
2022-08-01T12:53:22.510Z,101161.31
2022-08-01T12:55:58.333Z,101157.28
2022-08-01T12:58:33.349Z,101157.00
2022-08-01T13:01:09.940Z,101151.66
2022-08-01T13:03:37.067Z,101155.53
2022-08-01T13:06:16.558Z,101155.34
2022-08-01T13:08:45.261Z,101151.66
2022-08-01T13:11:18.930Z,101157.00
2022-08-01T13:13:51.639Z,101161.38
2022-08-01T13:16:48.822Z,101161.38
2022-08-01T13:19:14.756Z,101163.69
2022-08-01T13:21:58.139Z,101165.88
2022-08-01T13:24:28.679Z,101168.84
2022-08-01T13:27:02.287Z,101160.91
2022-08-01T13:29:42.296Z,101171.00
2022-08-01T13:32:27.681Z,101166.66
2022-08-01T13:35:07.383Z,101162.22
2022-08-01T13:37:37.153Z,101163.97
2022-08-01T13:40:07.238Z,101163.59
2022-08-01T13:42:34.544Z,101166.75
2022-08-01T13:45:02.989Z,101164.28
2022-08-01T13:47:32.612Z,101162.66
2022-08-01T13:50:02.943Z,101155.66
2022-08-01T13:52:30.540Z,101164.22
2022-08-01T13:54:57.888Z,101172.47
2022-08-01T13:57:24.698Z,101175.84
2022-08-01T13:59:52.513Z,101169.66
2022-08-01T14:02:20.890Z,101157.84
2022-08-01T14:04:47.978Z,101164.63
2022-08-01T14:07:15.339Z,101159.00
2022-08-01T14:09:57.768Z,101168.91
2022-08-01T14:12:29.890Z,101169.09
2022-08-01T14:14:57.214Z,101168.31
2022-08-01T14:17:24.190Z,101168.50
2022-08-01T14:19:51.003Z,101176.13
2022-08-01T14:22:17.798Z,101170.91
2022-08-01T14:24:44.710Z,101168.47
2022-08-01T14:27:11.518Z,101159.69
2022-08-01T14:30:02.122Z,101161.78
2022-08-01T14:32:25.997Z,101164.97
2022-08-01T14:34:57.063Z,101161.47
2022-08-01T14:37:29.144Z,101163.22
2022-08-01T14:39:59.190Z,101175.91
2022-08-01T14:42:26.799Z,101173.19
2022-08-01T14:44:53.614Z,101183.19
2022-08-01T14:47:22.065Z,101172.16
2022-08-01T14:49:50.334Z,101164.88
2022-08-01T14:52:17.804Z,101173.63
2022-08-01T14:54:44.766Z,101166.78
2022-08-01T14:57:11.617Z,101171.78
2022-08-01T14:59:38.404Z,101170.63
2022-08-01T15:02:05.573Z,101165.78
2022-08-01T15:04:32.538Z,101167.44
2022-08-01T15:06:59.350Z,101159.97
2022-08-01T15:09:26.157Z,101160.84
2022-08-01T15:11:52.992Z,101170.81
2022-08-01T15:14:38.251Z,101174.69
2022-08-01T15:17:05.068Z,101170.25
2022-08-01T15:19:31.905Z,101172.00
2022-08-01T15:21:59.337Z,101170.25
2022-08-01T15:24:28.398Z,101171.03
2022-08-01T15:26:55.212Z,101171.91
2022-08-01T15:29:21.996Z,101177.53
2022-08-01T15:31:48.805Z,101180.34
2022-08-01T15:34:15.646Z,101175.97
2022-08-01T15:36:43.726Z,101183.41
2022-08-01T15:39:13.792Z,101180.69
2022-08-01T15:41:40.587Z,101184.41
2022-08-01T15:44:07.558Z,101191.69
2022-08-01T15:46:34.533Z,101193.53
2022-08-01T15:49:06.252Z,101195.06
2022-08-01T15:51:33.698Z,101197.59
2022-08-01T15:54:09.153Z,101183.25
2022-08-01T15:56:39.676Z,101185.97
2022-08-01T15:59:06.614Z,101185.00
2022-08-01T16:01:33.505Z,101190.44
2022-08-01T16:04:00.525Z,101185.97
2022-08-01T16:06:27.728Z,101189.66
2022-08-01T16:08:55.375Z,101190.81
2022-08-01T16:11:23.913Z,101180.81
2022-08-01T16:13:51.162Z,101190.53
2022-08-01T16:16:17.987Z,101185.78
2022-08-01T16:18:45.216Z,101187.59
2022-08-01T16:21:20.890Z,101186.72
2022-08-01T16:23:47.686Z,101184.88
2022-08-01T16:26:28.023Z,101181.41
2022-08-01T16:28:55.337Z,101186.13
2022-08-01T16:31:44.519Z,101179.25
2022-08-01T16:34:09.653Z,101192.97
2022-08-01T16:36:39.868Z,101180.53
2022-08-01T16:39:07.662Z,101192.53
2022-08-01T16:41:37.647Z,101187.38
2022-08-01T16:44:04.785Z,101192.81
2022-08-01T16:46:33.543Z,101183.91
2022-08-01T16:49:00.476Z,101187.59
2022-08-01T16:51:27.620Z,101186.78
2022-08-01T16:53:54.448Z,101187.94
2022-08-01T16:56:21.415Z,101190.75
2022-08-01T16:58:48.200Z,101193.38
2022-08-01T17:01:58.696Z,101195.13
2022-08-01T17:04:05.233Z,101192.41
2022-08-01T17:06:32.033Z,101192.41
2022-08-01T17:08:58.888Z,101191.59
2022-08-01T17:11:25.703Z,101201.63
2022-08-01T17:13:52.689Z,101206.19
2022-08-01T17:16:19.777Z,101199.06
2022-08-01T17:18:46.569Z,101196.63
2022-08-01T17:21:13.404Z,101192.34
2022-08-01T17:23:40.436Z,101184.56
2022-08-01T17:26:07.457Z,101193.25
2022-08-01T17:28:34.292Z,101197.94
2022-08-01T17:31:01.210Z,101198.22
2022-08-01T17:33:44.825Z,101193.00
2022-08-01T17:36:15.103Z,101191.53
2022-08-01T17:38:41.920Z,101195.41
2022-08-01T17:41:08.700Z,101197.38
2022-08-01T17:43:35.593Z,101189.44
2022-08-01T17:46:02.386Z,101191.25
2022-08-01T17:48:29.389Z,101194.94
2022-08-01T17:50:56.257Z,101197.75
2022-08-01T17:53:23.985Z,101194.41
2022-08-01T17:55:55.532Z,101201.59
2022-08-01T17:58:48.981Z,101205.28
2022-08-01T18:01:14.789Z,101195.63
2022-08-01T18:03:42.018Z,101199.28
2022-08-01T18:06:15.543Z,101197.72
2022-08-01T18:08:43.551Z,101199.91
2022-08-01T18:11:11.175Z,101200.25
2022-08-01T18:13:40.763Z,101200.50
2022-08-01T18:16:10.990Z,101206.97
2022-08-01T18:18:39.032Z,101208.19
2022-08-01T18:21:07.783Z,101206.38
2022-08-01T18:23:35.620Z,101203.03
2022-08-01T18:26:02.905Z,101198.75
2022-08-01T18:28:35.058Z,101196.97
2022-08-01T18:31:03.643Z,101215.25
2022-08-01T18:33:30.724Z,101221.81
2022-08-01T18:36:03.737Z,101218.56
2022-08-01T18:38:32.401Z,101226.06
2022-08-01T18:41:01.062Z,101223.59
2022-08-01T18:43:28.464Z,101219.34
2022-08-01T18:45:57.201Z,101222.38
2022-08-01T18:48:24.566Z,101225.44
2022-08-01T18:50:52.266Z,101224.78
2022-08-01T18:53:20.651Z,101230.50
2022-08-01T18:55:47.454Z,101235.25
2022-08-01T18:58:14.275Z,101240.13
2022-08-01T19:00:42.082Z,101234.13
2022-08-01T19:03:09.688Z,101243.41
2022-08-01T19:05:37.223Z,101243.81
2022-08-01T19:08:07.243Z,101245.97
2022-08-01T19:10:39.877Z,101251.59
2022-08-01T19:13:08.014Z,101256.44
2022-08-01T19:15:35.837Z,101251.41
2022-08-01T19:18:03.450Z,101256.31
2022-08-01T19:20:30.461Z,101263.72
2022-08-01T19:22:57.355Z,101264.91
2022-08-01T19:25:25.549Z,101275.00
2022-08-01T19:27:54.217Z,101270.69
2022-08-01T19:30:21.030Z,101271.78
2022-08-01T19:32:48.932Z,101268.53
2022-08-01T19:35:16.979Z,101278.78
2022-08-01T19:37:50.721Z,101279.03
2022-08-01T19:40:26.698Z,101287.47
2022-08-01T19:42:56.745Z,101298.47
2022-08-01T19:45:24.616Z,101298.59
2022-08-01T19:47:57.323Z,101300.63
2022-08-01T19:50:28.998Z,101298.06
2022-08-01T19:52:57.651Z,101300.91
2022-08-01T19:55:25.202Z,101294.94
2022-08-01T20:00:40.996Z,101316.22
2022-08-01T20:03:09.171Z,101315.47
2022-08-01T20:05:37.138Z,101316.56
2022-08-01T20:08:06.531Z,101322.16
2022-08-01T20:10:34.106Z,101323.28
2022-08-01T20:13:02.345Z,101333.50
2022-08-01T20:15:29.901Z,101333.69
2022-08-01T20:18:00.611Z,101329.50
2022-08-01T20:20:27.932Z,101333.31
2022-08-01T20:22:57.428Z,101330.91
2022-08-01T20:25:33.591Z,101337.38
2022-08-01T20:28:12.270Z,101341.22
2022-08-01T20:30:42.094Z,101339.56
2022-08-01T20:33:11.460Z,101343.31
2022-08-01T20:35:53.255Z,101338.09
2022-08-01T20:38:27.643Z,101340.19
2022-08-01T20:40:58.679Z,101349.41
2022-08-01T20:43:27.387Z,101342.34
2022-08-01T20:45:55.729Z,101355.09
2022-08-01T20:48:27.339Z,101347.97
2022-08-01T20:51:13.052Z,101358.09
2022-08-01T20:53:42.731Z,101355.50
2022-08-01T20:56:33.827Z,101361.97
2022-08-01T20:59:52.798Z,101363.94
2022-08-01T21:02:29.831Z,101367.97
2022-08-01T21:05:11.828Z,101366.31
2022-08-01T21:07:54.046Z,101371.91
2022-08-01T21:10:24.499Z,101372.09
2022-08-01T21:13:16.651Z,101368.69
2022-08-01T21:16:23.928Z,101363.47
2022-08-01T21:19:18.574Z,101371.72
2022-08-01T21:22:06.992Z,101384.50
2022-08-01T21:25:07.657Z,101387.31
2022-08-01T21:27:36.056Z,101388.31
2022-08-01T21:30:07.546Z,101397.31
2022-08-01T21:32:36.307Z,101391.06
2022-08-01T21:35:05.457Z,101393.78
2022-08-01T21:37:43.874Z,101400.19
2022-08-01T21:40:11.037Z,101399.34
2022-08-01T21:42:39.871Z,101394.06
2022-08-01T21:45:09.492Z,101394.06
2022-08-01T21:47:37.145Z,101396.88
2022-08-01T21:50:06.279Z,101396.03
2022-08-01T21:53:18.481Z,101404.34
2022-08-01T21:56:24.927Z,101402.66
2022-08-01T21:59:07.572Z,101397.34
2022-08-01T22:01:53.148Z,101392.09
2022-08-01T22:04:34.126Z,101384.97
2022-08-01T22:07:02.890Z,101387.78
2022-08-01T22:09:31.090Z,101382.44
2022-08-01T22:12:04.650Z,101380.69
2022-08-01T22:14:33.806Z,101379.91
2022-08-01T22:17:01.433Z,101378.19
2022-08-01T22:19:44.358Z,101378.25
2022-08-01T22:22:45.228Z,101373.88
2022-08-01T22:25:02.286Z,101374.00
2022-08-01T22:28:06.438Z,101365.16
2022-08-01T22:30:17.891Z,101366.19
2022-08-01T22:33:15.443Z,101362.66
2022-08-01T22:35:35.018Z,101357.41
2022-08-01T22:38:01.957Z,101361.13
2022-08-01T22:40:33.025Z,101364.72
2022-08-01T22:43:07.883Z,101359.44
2022-08-01T22:46:10.117Z,101368.66
2022-08-01T22:48:45.331Z,101360.69
2022-08-01T22:51:55.744Z,101355.56
2022-08-01T22:54:30.759Z,101361.84
2022-08-01T22:57:01.461Z,101361.94
2022-08-01T23:00:00.410Z,101366.53
2022-08-01T23:02:31.129Z,101378.34
2022-08-01T23:05:06.773Z,101374.81
2022-08-01T23:07:38.779Z,101377.66
2022-08-01T23:10:07.985Z,101380.47
2022-08-01T23:12:36.590Z,101383.19
2022-08-01T23:15:04.189Z,101380.63
2022-08-01T23:17:31.993Z,101382.47
2022-08-01T23:20:01.671Z,101382.56
2022-08-01T23:22:31.447Z,101391.69
2022-08-01T23:25:05.258Z,101392.69
2022-08-01T23:27:51.470Z,101402.59
2022-08-01T23:30:29.898Z,101397.31
2022-08-01T23:32:57.232Z,101391.16
2022-08-01T23:35:25.099Z,101390.38
2022-08-01T23:37:52.799Z,101397.63
2022-08-01T23:40:20.302Z,101390.53
2022-08-01T23:42:47.163Z,101405.00
2022-08-01T23:45:14.404Z,101392.56
2022-08-01T23:47:41.679Z,101395.31
2022-08-01T23:50:09.143Z,101393.66
2022-08-01T23:52:48.159Z,101394.69
2022-08-01T23:55:16.692Z,101395.69
2022-08-01T23:57:43.813Z,101399.44
